sensor_id;sensor_type;location;lat;lon;timestamp;pressure;altitude;pressure_sealevel;temperature;humidity
52719;BME280;38616;42.140;24.760;2023-05-03T00:00:28;100154.69;;;14.83;41.66
52719;BME280;38616;42.140;24.760;2023-05-03T00:02:53;100146.63;;;14.92;41.42
52719;BME280;38616;42.140;24.760;2023-05-03T00:05:21;100157.78;;;14.09;43.03
52719;BME280;38616;42.140;24.760;2023-05-03T00:07:47;100152.47;;;13.29;44.60
52719;BME280;38616;42.140;24.760;2023-05-03T00:10:13;100148.13;;;13.63;44.42
52719;BME280;38616;42.140;24.760;2023-05-03T00:12:41;100142.38;;;13.64;44.01
52719;BME280;38616;42.140;24.760;2023-05-03T00:15:07;100140.13;;;13.37;44.66
52719;BME280;38616;42.140;24.760;2023-05-03T00:17:33;100135.88;;;13.60;44.41
52719;BME280;38616;42.140;24.760;2023-05-03T00:19:59;100145.09;;;13.94;43.61
52719;BME280;38616;42.140;24.760;2023-05-03T00:22:25;100151.31;;;14.24;42.83
52719;BME280;38616;42.140;24.760;2023-05-03T00:24:51;100155.56;;;14.35;42.89
52719;BME280;38616;42.140;24.760;2023-05-03T00:27:17;100147.75;;;14.47;42.84
52719;BME280;38616;42.140;24.760;2023-05-03T00:29:43;100149.31;;;14.54;42.64
52719;BME280;38616;42.140;24.760;2023-05-03T00:32:08;100143.91;;;14.73;42.57
52719;BME280;38616;42.140;24.760;2023-05-03T00:34:36;100145.44;;;14.79;42.24
52719;BME280;38616;42.140;24.760;2023-05-03T00:37:01;100134.13;;;14.86;42.29
52719;BME280;38616;42.140;24.760;2023-05-03T00:39:30;100128.13;;;15.03;42.02
52719;BME280;38616;42.140;24.760;2023-05-03T00:42:00;100132.56;;;14.80;42.15
52719;BME280;38616;42.140;24.760;2023-05-03T00:44:26;100132.28;;;14.81;42.61
52719;BME280;38616;42.140;24.760;2023-05-03T00:46:52;100135.63;;;14.78;42.63
52719;BME280;38616;42.140;24.760;2023-05-03T00:49:18;100127.53;;;14.68;43.08
52719;BME280;38616;42.140;24.760;2023-05-03T00:51:44;100130.81;;;14.70;43.10
52719;BME280;38616;42.140;24.760;2023-05-03T00:54:10;100127.97;;;14.56;43.36
52719;BME280;38616;42.140;24.760;2023-05-03T00:56:37;100132.38;;;14.76;43.13
52719;BME280;38616;42.140;24.760;2023-05-03T00:59:03;100118.03;;;14.84;42.74
52719;BME280;38616;42.140;24.760;2023-05-03T01:01:30;100107.56;;;14.67;43.43
52719;BME280;38616;42.140;24.760;2023-05-03T01:04:00;100113.09;;;14.62;43.43
52719;BME280;38616;42.140;24.760;2023-05-03T01:09:11;100136.59;;;14.44;43.96
52719;BME280;38616;42.140;24.760;2023-05-03T01:11:47;100130.19;;;14.29;44.22
52719;BME280;38616;42.140;24.760;2023-05-03T01:16:55;100134.91;;;14.67;43.46
52719;BME280;38616;42.140;24.760;2023-05-03T01:19:35;100121.78;;;14.69;43.66
52719;BME280;38616;42.140;24.760;2023-05-03T01:22:55;100132.81;;;14.59;43.60
52719;BME280;38616;42.140;24.760;2023-05-03T01:25:12;100125.44;;;14.59;43.57
52719;BME280;38616;42.140;24.760;2023-05-03T01:27:39;100121.81;;;14.45;43.84
52719;BME280;38616;42.140;24.760;2023-05-03T01:30:06;100103.00;;;14.62;43.85
52719;BME280;38616;42.140;24.760;2023-05-03T01:35:42;100115.03;;;13.69;45.15
52719;BME280;38616;42.140;24.760;2023-05-03T01:38:11;100113.13;;;13.94;44.24
52719;BME280;38616;42.140;24.760;2023-05-03T01:40:52;100120.53;;;13.64;44.44
52719;BME280;38616;42.140;24.760;2023-05-03T01:43:18;100119.97;;;13.92;44.20
52719;BME280;38616;42.140;24.760;2023-05-03T01:45:45;100117.91;;;14.08;43.44
52719;BME280;38616;42.140;24.760;2023-05-03T01:48:16;100119.94;;;13.97;43.36
52719;BME280;38616;42.140;24.760;2023-05-03T01:50:41;100107.56;;;14.04;43.29
52719;BME280;38616;42.140;24.760;2023-05-03T01:53:07;100105.63;;;13.81;43.52
52719;BME280;38616;42.140;24.760;2023-05-03T01:55:32;100104.41;;;13.92;43.56
52719;BME280;38616;42.140;24.760;2023-05-03T01:57:58;100102.91;;;14.05;43.24
52719;BME280;38616;42.140;24.760;2023-05-03T02:00:24;100092.84;;;14.25;42.57
52719;BME280;38616;42.140;24.760;2023-05-03T02:02:49;100099.66;;;14.03;43.05
52719;BME280;38616;42.140;24.760;2023-05-03T02:05:15;100098.34;;;14.19;42.87
52719;BME280;38616;42.140;24.760;2023-05-03T02:07:40;100089.78;;;13.83;43.55
52719;BME280;38616;42.140;24.760;2023-05-03T02:10:06;100096.94;;;14.22;42.66
52719;BME280;38616;42.140;24.760;2023-05-03T02:12:32;100099.31;;;14.10;42.76
52719;BME280;38616;42.140;24.760;2023-05-03T02:14:57;100100.69;;;14.07;43.03
52719;BME280;38616;42.140;24.760;2023-05-03T02:17:23;100096.94;;;14.22;42.70
52719;BME280;38616;42.140;24.760;2023-05-03T02:19:54;100103.44;;;14.26;42.86
52719;BME280;38616;42.140;24.760;2023-05-03T02:22:19;100100.72;;;14.26;42.58
52719;BME280;38616;42.140;24.760;2023-05-03T02:24:45;100116.88;;;14.03;43.12
52719;BME280;38616;42.140;24.760;2023-05-03T02:27:11;100112.69;;;14.30;43.51
52719;BME280;38616;42.140;24.760;2023-05-03T02:29:36;100113.13;;;14.18;43.52
52719;BME280;38616;42.140;24.760;2023-05-03T02:32:02;100120.34;;;14.09;43.60
52719;BME280;38616;42.140;24.760;2023-05-03T02:34:30;100099.00;;;14.11;43.91
52719;BME280;38616;42.140;24.760;2023-05-03T02:36:56;100101.38;;;14.18;43.69
52719;BME280;38616;42.140;24.760;2023-05-03T02:39:21;100108.75;;;14.17;43.90
52719;BME280;38616;42.140;24.760;2023-05-03T02:41:47;100096.16;;;14.22;43.64
52719;BME280;38616;42.140;24.760;2023-05-03T02:44:12;100104.50;;;14.30;43.55
52719;BME280;38616;42.140;24.760;2023-05-03T02:46:38;100105.94;;;14.47;43.07
52719;BME280;38616;42.140;24.760;2023-05-03T02:49:04;100092.19;;;14.33;43.46
52719;BME280;38616;42.140;24.760;2023-05-03T02:51:30;100091.94;;;14.29;43.53
52719;BME280;38616;42.140;24.760;2023-05-03T02:53:56;100082.88;;;14.34;43.68
52719;BME280;38616;42.140;24.760;2023-05-03T02:56:21;100105.19;;;14.41;43.59
52719;BME280;38616;42.140;24.760;2023-05-03T02:58:49;100110.88;;;14.45;43.64
52719;BME280;38616;42.140;24.760;2023-05-03T03:01:15;100119.38;;;14.19;44.08
52719;BME280;38616;42.140;24.760;2023-05-03T03:03:40;100128.94;;;14.22;44.52
52719;BME280;38616;42.140;24.760;2023-05-03T03:06:06;100129.16;;;14.25;44.39
52719;BME280;38616;42.140;24.760;2023-05-03T03:08:31;100133.88;;;14.19;44.52
52719;BME280;38616;42.140;24.760;2023-05-03T03:10:56;100138.97;;;14.26;44.39
52719;BME280;38616;42.140;24.760;2023-05-03T03:13:22;100143.41;;;13.98;45.17
52719;BME280;38616;42.140;24.760;2023-05-03T03:15:48;100145.09;;;13.94;45.46
52719;BME280;38616;42.140;24.760;2023-05-03T03:18:13;100143.59;;;14.07;44.97
52719;BME280;38616;42.140;24.760;2023-05-03T03:20:38;100136.19;;;13.83;45.79
52719;BME280;38616;42.140;24.760;2023-05-03T03:23:04;100139.03;;;13.97;45.46
52719;BME280;38616;42.140;24.760;2023-05-03T03:25:29;100142.88;;;13.96;45.47
52719;BME280;38616;42.140;24.760;2023-05-03T03:27:55;100143.75;;;13.91;45.69
52719;BME280;38616;42.140;24.760;2023-05-03T03:30:20;100133.88;;;13.95;45.94
52719;BME280;38616;42.140;24.760;2023-05-03T03:32:45;100142.19;;;13.85;46.11
52719;BME280;38616;42.140;24.760;2023-05-03T03:35:12;100148.16;;;13.87;46.07
52719;BME280;38616;42.140;24.760;2023-05-03T03:37:38;100157.03;;;13.73;46.22
52719;BME280;38616;42.140;24.760;2023-05-03T03:40:04;100159.00;;;13.97;46.20
52719;BME280;38616;42.140;24.760;2023-05-03T03:42:31;100163.25;;;13.79;46.26
52719;BME280;38616;42.140;24.760;2023-05-03T03:44:57;100180.16;;;13.81;46.54
52719;BME280;38616;42.140;24.760;2023-05-03T03:47:22;100177.06;;;13.93;46.71
52719;BME280;38616;42.140;24.760;2023-05-03T03:49:48;100185.91;;;13.80;46.78
52719;BME280;38616;42.140;24.760;2023-05-03T03:52:13;100179.41;;;13.76;47.80
52719;BME280;38616;42.140;24.760;2023-05-03T03:54:39;100176.16;;;13.73;47.37
52719;BME280;38616;42.140;24.760;2023-05-03T03:57:04;100188.66;;;13.80;47.21
52719;BME280;38616;42.140;24.760;2023-05-03T03:59:30;100200.31;;;13.56;47.70
52719;BME280;38616;42.140;24.760;2023-05-03T04:01:55;100198.69;;;13.55;48.21
52719;BME280;38616;42.140;24.760;2023-05-03T04:04:21;100194.72;;;13.71;48.28
52719;BME280;38616;42.140;24.760;2023-05-03T04:06:46;100199.09;;;13.72;48.47
52719;BME280;38616;42.140;24.760;2023-05-03T04:09:12;100196.94;;;13.69;48.56
52719;BME280;38616;42.140;24.760;2023-05-03T04:11:38;100209.63;;;13.84;48.49
52719;BME280;38616;42.140;24.760;2023-05-03T04:14:04;100204.91;;;13.66;49.18
52719;BME280;38616;42.140;24.760;2023-05-03T04:16:29;100211.03;;;13.47;50.20
52719;BME280;38616;42.140;24.760;2023-05-03T04:18:54;100217.91;;;13.74;49.91
52719;BME280;38616;42.140;24.760;2023-05-03T04:21:20;100226.63;;;13.76;50.06
52719;BME280;38616;42.140;24.760;2023-05-03T04:23:45;100233.16;;;13.80;50.34
52719;BME280;38616;42.140;24.760;2023-05-03T04:26:11;100240.97;;;13.92;50.54
52719;BME280;38616;42.140;24.760;2023-05-03T04:28:36;100247.63;;;13.81;51.14
52719;BME280;38616;42.140;24.760;2023-05-03T04:31:05;100260.13;;;13.87;51.43
52719;BME280;38616;42.140;24.760;2023-05-03T04:33:30;100267.06;;;13.74;51.88
52719;BME280;38616;42.140;24.760;2023-05-03T04:35:56;100280.34;;;13.86;52.27
52719;BME280;38616;42.140;24.760;2023-05-03T04:38:22;100297.00;;;13.84;52.34
52719;BME280;38616;42.140;24.760;2023-05-03T04:40:48;100298.19;;;13.73;52.90
52719;BME280;38616;42.140;24.760;2023-05-03T04:43:13;100308.34;;;13.67;54.17
52719;BME280;38616;42.140;24.760;2023-05-03T04:45:39;100306.03;;;13.85;52.99
52719;BME280;38616;42.140;24.760;2023-05-03T04:48:05;100301.53;;;13.65;53.80
52719;BME280;38616;42.140;24.760;2023-05-03T04:50:32;100307.44;;;13.77;54.24
52719;BME280;38616;42.140;24.760;2023-05-03T04:52:57;100299.81;;;13.74;54.39
52719;BME280;38616;42.140;24.760;2023-05-03T04:55:23;100303.66;;;13.73;54.78
52719;BME280;38616;42.140;24.760;2023-05-03T04:57:48;100310.13;;;13.82;54.71
52719;BME280;38616;42.140;24.760;2023-05-03T05:00:14;100320.81;;;13.79;55.21
52719;BME280;38616;42.140;24.760;2023-05-03T05:02:43;100317.94;;;13.65;55.94
52719;BME280;38616;42.140;24.760;2023-05-03T05:05:09;100322.13;;;13.41;57.59
52719;BME280;38616;42.140;24.760;2023-05-03T05:07:35;100334.97;;;13.41;56.89
52719;BME280;38616;42.140;24.760;2023-05-03T05:10:01;100330.88;;;13.33;57.52
52719;BME280;38616;42.140;24.760;2023-05-03T05:12:26;100333.09;;;13.26;58.07
52719;BME280;38616;42.140;24.760;2023-05-03T05:14:52;100339.00;;;13.54;57.57
52719;BME280;38616;42.140;24.760;2023-05-03T05:17:17;100340.66;;;13.50;57.22
52719;BME280;38616;42.140;24.760;2023-05-03T05:19:43;100352.41;;;13.50;57.55
52719;BME280;38616;42.140;24.760;2023-05-03T05:22:08;100346.09;;;13.55;57.87
52719;BME280;38616;42.140;24.760;2023-05-03T05:24:34;100341.69;;;13.59;58.17
52719;BME280;38616;42.140;24.760;2023-05-03T05:26:59;100334.09;;;13.51;57.62
52719;BME280;38616;42.140;24.760;2023-05-03T05:29:26;100326.22;;;13.39;58.14
52719;BME280;38616;42.140;24.760;2023-05-03T05:31:51;100333.88;;;13.42;58.11
52719;BME280;38616;42.140;24.760;2023-05-03T05:34:17;100328.28;;;13.12;59.81
52719;BME280;38616;42.140;24.760;2023-05-03T05:36:42;100320.03;;;13.23;58.99
52719;BME280;38616;42.140;24.760;2023-05-03T05:39:08;100307.97;;;13.29;58.68
52719;BME280;38616;42.140;24.760;2023-05-03T05:41:34;100320.03;;;13.23;58.74
52719;BME280;38616;42.140;24.760;2023-05-03T05:43:59;100318.38;;;13.27;58.87
52719;BME280;38616;42.140;24.760;2023-05-03T05:46:25;100314.81;;;13.32;59.16
52719;BME280;38616;42.140;24.760;2023-05-03T05:48:50;100320.81;;;13.28;58.65
52719;BME280;38616;42.140;24.760;2023-05-03T05:51:17;100315.59;;;13.37;59.28
52719;BME280;38616;42.140;24.760;2023-05-03T05:53:42;100304.94;;;13.46;59.28
52719;BME280;38616;42.140;24.760;2023-05-03T05:56:08;100306.59;;;13.37;58.98
52719;BME280;38616;42.140;24.760;2023-05-03T05:58:34;100300.59;;;13.35;58.83
52719;BME280;38616;42.140;24.760;2023-05-03T06:01:01;100297.59;;;13.41;58.28
52719;BME280;38616;42.140;24.760;2023-05-03T06:03:29;100296.53;;;13.27;59.10
52719;BME280;38616;42.140;24.760;2023-05-03T06:05:55;100292.41;;;13.35;60.01
52719;BME280;38616;42.140;24.760;2023-05-03T06:08:21;100302.50;;;13.34;59.55
52719;BME280;38616;42.140;24.760;2023-05-03T06:10:46;100296.44;;;13.48;59.56
52719;BME280;38616;42.140;24.760;2023-05-03T06:13:11;100299.66;;;13.60;60.17
52719;BME280;38616;42.140;24.760;2023-05-03T06:15:37;100299.66;;;13.60;60.21
52719;BME280;38616;42.140;24.760;2023-05-03T06:18:02;100295.34;;;13.88;59.04
52719;BME280;38616;42.140;24.760;2023-05-03T06:20:28;100307.31;;;13.93;58.99
52719;BME280;38616;42.140;24.760;2023-05-03T06:22:54;100304.81;;;14.01;58.76
52719;BME280;38616;42.140;24.760;2023-05-03T06:25:19;100311.41;;;13.95;59.35
52719;BME280;38616;42.140;24.760;2023-05-03T06:27:44;100309.72;;;14.04;59.48
52719;BME280;38616;42.140;24.760;2023-05-03T06:30:10;100316.53;;;14.02;58.88
52719;BME280;38616;42.140;24.760;2023-05-03T06:32:38;100305.38;;;13.98;58.79
52719;BME280;38616;42.140;24.760;2023-05-03T06:35:04;100292.34;;;14.19;58.43
52719;BME280;38616;42.140;24.760;2023-05-03T06:37:30;100301.16;;;14.11;58.20
52719;BME280;38616;42.140;24.760;2023-05-03T06:39:55;100287.59;;;14.01;58.64
52719;BME280;38616;42.140;24.760;2023-05-03T06:42:21;100283.09;;;14.15;58.88
52719;BME280;38616;42.140;24.760;2023-05-03T06:44:46;100287.16;;;14.18;59.16
52719;BME280;38616;42.140;24.760;2023-05-03T06:47:12;100280.97;;;14.37;59.48
52719;BME280;38616;42.140;24.760;2023-05-03T06:49:38;100279.25;;;14.46;58.94
52719;BME280;38616;42.140;24.760;2023-05-03T06:52:03;100275.28;;;14.33;59.88
52719;BME280;38616;42.140;24.760;2023-05-03T06:54:29;100270.41;;;14.30;58.75
52719;BME280;38616;42.140;24.760;2023-05-03T06:56:55;100273.72;;;14.51;58.97
52719;BME280;38616;42.140;24.760;2023-05-03T06:59:20;100264.41;;;14.28;59.52
52719;BME280;38616;42.140;24.760;2023-05-03T07:01:45;100267.84;;;14.39;59.15
52719;BME280;38616;42.140;24.760;2023-05-03T07:04:11;100259.34;;;14.65;59.44
52719;BME280;38616;42.140;24.760;2023-05-03T07:06:36;100256.88;;;14.92;57.68
52719;BME280;38616;42.140;24.760;2023-05-03T07:09:03;100262.56;;;14.96;57.76
52719;BME280;38616;42.140;24.760;2023-05-03T07:11:29;100261.38;;;15.21;57.54
52719;BME280;38616;42.140;24.760;2023-05-03T07:13:54;100271.16;;;15.28;56.36
52719;BME280;38616;42.140;24.760;2023-05-03T07:16:21;100257.47;;;15.28;56.49
52719;BME280;38616;42.140;24.760;2023-05-03T07:18:48;100266.94;;;15.16;55.88
52719;BME280;38616;42.140;24.760;2023-05-03T07:21:14;100257.69;;;14.44;57.60
52719;BME280;38616;42.140;24.760;2023-05-03T07:23:40;100266.94;;;14.19;58.65
52719;BME280;38616;42.140;24.760;2023-05-03T07:26:05;100269.69;;;14.73;58.05
52719;BME280;38616;42.140;24.760;2023-05-03T07:28:31;100273.13;;;15.03;57.03
52719;BME280;38616;42.140;24.760;2023-05-03T07:30:56;100277.41;;;14.90;57.44
52719;BME280;38616;42.140;24.760;2023-05-03T07:33:22;100280.53;;;15.21;57.14
52719;BME280;38616;42.140;24.760;2023-05-03T07:35:48;100272.41;;;15.55;56.40
52719;BME280;38616;42.140;24.760;2023-05-03T07:38:15;100279.28;;;15.71;55.55
52719;BME280;38616;42.140;24.760;2023-05-03T07:40:40;100261.13;;;15.94;54.67
52719;BME280;38616;42.140;24.760;2023-05-03T07:43:06;100248.00;;;15.39;55.29
52719;BME280;38616;42.140;24.760;2023-05-03T07:45:34;100255.03;;;15.45;55.22
52719;BME280;38616;42.140;24.760;2023-05-03T07:48:00;100245.34;;;15.34;55.74
52719;BME280;38616;42.140;24.760;2023-05-03T07:50:25;100243.34;;;15.59;56.34
52719;BME280;38616;42.140;24.760;2023-05-03T07:52:51;100258.66;;;15.60;55.32
52719;BME280;38616;42.140;24.760;2023-05-03T07:55:17;100256.00;;;15.55;54.52
52719;BME280;38616;42.140;24.760;2023-05-03T07:57:45;100253.16;;;15.60;55.26
52719;BME280;38616;42.140;24.760;2023-05-03T08:00:11;100242.06;;;15.70;54.46
52719;BME280;38616;42.140;24.760;2023-05-03T08:02:37;100236.59;;;14.45;54.99
52719;BME280;38616;42.140;24.760;2023-05-03T08:05:03;100239.91;;;13.88;57.97
52719;BME280;38616;42.140;24.760;2023-05-03T08:07:32;100241.44;;;14.29;57.51
52719;BME280;38616;42.140;24.760;2023-05-03T08:09:58;100230.66;;;14.62;56.88
52719;BME280;38616;42.140;24.760;2023-05-03T08:12:24;100225.38;;;15.14;55.93
52719;BME280;38616;42.140;24.760;2023-05-03T08:14:54;100234.25;;;15.44;55.38
52719;BME280;38616;42.140;24.760;2023-05-03T08:17:20;100220.84;;;15.76;54.54
52719;BME280;38616;42.140;24.760;2023-05-03T08:19:46;100229.78;;;16.01;52.81
52719;BME280;38616;42.140;24.760;2023-05-03T08:22:12;100247.75;;;16.07;52.42
52719;BME280;38616;42.140;24.760;2023-05-03T08:24:38;100238.34;;;16.13;53.24
52719;BME280;38616;42.140;24.760;2023-05-03T08:27:04;100231.03;;;16.50;51.58
52719;BME280;38616;42.140;24.760;2023-05-03T08:29:30;100209.31;;;16.54;50.19
52719;BME280;38616;42.140;24.760;2023-05-03T08:31:56;100226.34;;;16.79;49.84
52719;BME280;38616;42.140;24.760;2023-05-03T08:34:22;100228.28;;;16.78;49.57
52719;BME280;38616;42.140;24.760;2023-05-03T08:36:48;100228.28;;;16.50;49.93
52719;BME280;38616;42.140;24.760;2023-05-03T08:39:13;100230.31;;;16.59;49.56
52719;BME280;38616;42.140;24.760;2023-05-03T08:41:40;100221.09;;;16.68;48.92
52719;BME280;38616;42.140;24.760;2023-05-03T08:44:07;100220.38;;;16.77;48.92
52719;BME280;38616;42.140;24.760;2023-05-03T08:46:36;100217.81;;;16.80;49.10
52719;BME280;38616;42.140;24.760;2023-05-03T08:49:03;100207.47;;;16.77;49.06
52719;BME280;38616;42.140;24.760;2023-05-03T08:51:28;100201.25;;;16.99;48.90
52719;BME280;38616;42.140;24.760;2023-05-03T08:53:54;100216.28;;;16.88;49.09
52719;BME280;38616;42.140;24.760;2023-05-03T08:56:32;100208.50;;;16.53;49.92
52719;BME280;38616;42.140;24.760;2023-05-03T08:58:59;100198.44;;;16.63;50.13
52719;BME280;38616;42.140;24.760;2023-05-03T09:01:32;100185.19;;;16.93;49.48
52719;BME280;38616;42.140;24.760;2023-05-03T09:03:58;100176.69;;;16.66;49.33
52719;BME280;38616;42.140;24.760;2023-05-03T09:06:25;100178.84;;;16.42;50.18
52719;BME280;38616;42.140;24.760;2023-05-03T09:08:51;100185.84;;;16.62;50.02
52719;BME280;38616;42.140;24.760;2023-05-03T09:11:24;100192.59;;;16.92;50.11
52719;BME280;38616;42.140;24.760;2023-05-03T09:13:51;100195.88;;;16.80;50.28
52719;BME280;38616;42.140;24.760;2023-05-03T09:16:24;100199.63;;;16.84;49.41
52719;BME280;38616;42.140;24.760;2023-05-03T09:19:04;100185.25;;;16.51;49.97
52719;BME280;38616;42.140;24.760;2023-05-03T09:21:36;100173.88;;;16.94;49.69
52719;BME280;38616;42.140;24.760;2023-05-03T09:24:11;100178.34;;;16.90;49.39
52719;BME280;38616;42.140;24.760;2023-05-03T09:26:38;100171.25;;;16.89;49.81
52719;BME280;38616;42.140;24.760;2023-05-03T09:29:05;100168.66;;;16.70;50.18
52719;BME280;38616;42.140;24.760;2023-05-03T09:31:32;100167.47;;;16.62;49.91
52719;BME280;38616;42.140;24.760;2023-05-03T09:33:58;100155.38;;;16.63;50.48
52719;BME280;38616;42.140;24.760;2023-05-03T09:36:24;100155.44;;;16.72;50.68
52719;BME280;38616;42.140;24.760;2023-05-03T09:38:51;100170.63;;;17.06;50.07
52719;BME280;38616;42.140;24.760;2023-05-03T09:41:30;100163.84;;;17.26;49.14
52719;BME280;38616;42.140;24.760;2023-05-03T09:43:56;100160.09;;;17.22;49.85
52719;BME280;38616;42.140;24.760;2023-05-03T09:46:27;100163.47;;;17.42;50.11
52719;BME280;38616;42.140;24.760;2023-05-03T09:48:54;100171.13;;;17.31;50.18
52719;BME280;38616;42.140;24.760;2023-05-03T09:51:22;100166.16;;;17.33;49.79
52719;BME280;38616;42.140;24.760;2023-05-03T09:53:48;100160.97;;;17.09;49.48
52719;BME280;38616;42.140;24.760;2023-05-03T09:56:14;100162.03;;;16.99;49.98
52719;BME280;38616;42.140;24.760;2023-05-03T09:58:41;100171.38;;;16.98;50.44
52719;BME280;38616;42.140;24.760;2023-05-03T10:01:08;100167.66;;;16.38;51.60
52719;BME280;38616;42.140;24.760;2023-05-03T10:03:44;100166.16;;;16.04;53.13
52719;BME280;38616;42.140;24.760;2023-05-03T10:06:24;100174.56;;;16.49;52.34
52719;BME280;38616;42.140;24.760;2023-05-03T10:09:13;100188.78;;;16.09;52.86
52719;BME280;38616;42.140;24.760;2023-05-03T10:11:53;100189.91;;;16.08;53.09
52719;BME280;38616;42.140;24.760;2023-05-03T10:14:22;100201.59;;;16.56;52.42
52719;BME280;38616;42.140;24.760;2023-05-03T10:16:50;100194.13;;;16.98;51.02
52719;BME280;38616;42.140;24.760;2023-05-03T10:19:25;100184.66;;;17.05;50.58
52719;BME280;38616;42.140;24.760;2023-05-03T10:24:27;100167.13;;;16.78;51.27
52719;BME280;38616;42.140;24.760;2023-05-03T10:26:54;100155.88;;;16.65;51.40
52719;BME280;38616;42.140;24.760;2023-05-03T10:32:35;100155.41;;;17.23;50.66
52719;BME280;38616;42.140;24.760;2023-05-03T10:35:13;100150.13;;;16.90;50.74
52719;BME280;38616;42.140;24.760;2023-05-03T10:37:40;100138.13;;;16.99;50.66
52719;BME280;38616;42.140;24.760;2023-05-03T10:40:10;100135.56;;;16.89;51.31
52719;BME280;38616;42.140;24.760;2023-05-03T10:42:48;100141.13;;;17.35;50.78
52719;BME280;38616;42.140;24.760;2023-05-03T10:45:25;100142.00;;;17.76;49.41
52719;BME280;38616;42.140;24.760;2023-05-03T10:50:39;100130.84;;;17.72;48.99
52719;BME280;38616;42.140;24.760;2023-05-03T10:53:07;100138.63;;;17.79;48.80
52719;BME280;38616;42.140;24.760;2023-05-03T10:55:34;100140.88;;;17.22;49.83
52719;BME280;38616;42.140;24.760;2023-05-03T10:58:00;100129.91;;;17.45;49.59
52719;BME280;38616;42.140;24.760;2023-05-03T11:00:40;100130.53;;;17.42;49.86
52719;BME280;38616;42.140;24.760;2023-05-03T11:05:43;100132.31;;;17.78;49.69
52719;BME280;38616;42.140;24.760;2023-05-03T11:08:23;100122.53;;;17.95;49.31
52719;BME280;38616;42.140;24.760;2023-05-03T11:10:58;100108.41;;;18.10;49.12
52719;BME280;38616;42.140;24.760;2023-05-03T11:13:24;100117.28;;;18.07;49.24
52719;BME280;38616;42.140;24.760;2023-05-03T11:15:52;100124.47;;;18.26;48.96
52719;BME280;38616;42.140;24.760;2023-05-03T11:18:17;100117.13;;;18.12;49.00
52719;BME280;38616;42.140;24.760;2023-05-03T11:20:43;100113.41;;;18.08;49.31
52719;BME280;38616;42.140;24.760;2023-05-03T11:23:11;100117.41;;;18.02;49.54
52719;BME280;38616;42.140;24.760;2023-05-03T11:25:36;100114.78;;;17.97;49.61
52719;BME280;38616;42.140;24.760;2023-05-03T11:28:03;100114.75;;;17.88;49.87
52719;BME280;38616;42.140;24.760;2023-05-03T11:30:29;100114.66;;;17.62;51.07
52719;BME280;38616;42.140;24.760;2023-05-03T11:32:58;100105.53;;;17.84;50.81
52719;BME280;38616;42.140;24.760;2023-05-03T11:35:24;100110.69;;;17.85;51.16
52719;BME280;38616;42.140;24.760;2023-05-03T11:37:51;100100.53;;;17.86;51.26
52719;BME280;38616;42.140;24.760;2023-05-03T11:40:17;100099.84;;;17.80;51.31
52719;BME280;38616;42.140;24.760;2023-05-03T11:45:21;100077.84;;;17.80;51.05
52719;BME280;38616;42.140;24.760;2023-05-03T11:47:47;100068.97;;;17.83;51.58
52719;BME280;38616;42.140;24.760;2023-05-03T11:50:13;100058.13;;;17.78;51.35
52719;BME280;38616;42.140;24.760;2023-05-03T11:52:40;100057.16;;;17.74;50.73
52719;BME280;38616;42.140;24.760;2023-05-03T11:55:06;100063.75;;;17.33;50.18
52719;BME280;38616;42.140;24.760;2023-05-03T11:57:32;100073.84;;;17.46;50.73
52719;BME280;38616;42.140;24.760;2023-05-03T12:00:12;100070.47;;;17.49;49.31
52719;BME280;38616;42.140;24.760;2023-05-03T12:02:47;100073.97;;;16.95;49.88
52719;BME280;38616;42.140;24.760;2023-05-03T12:05:13;100066.09;;;16.80;50.56
52719;BME280;38616;42.140;24.760;2023-05-03T12:07:39;100068.66;;;16.76;50.87
52719;BME280;38616;42.140;24.760;2023-05-03T12:10:31;100062.34;;;17.12;50.60
52719;BME280;38616;42.140;24.760;2023-05-03T12:12:58;100060.13;;;16.41;53.20
52719;BME280;38616;42.140;24.760;2023-05-03T12:15:32;100051.66;;;16.65;52.96
52719;BME280;38616;42.140;24.760;2023-05-03T12:17:59;100068.22;;;16.60;52.73
52719;BME280;38616;42.140;24.760;2023-05-03T12:20:27;100074.47;;;16.75;52.17
52719;BME280;38616;42.140;24.760;2023-05-03T12:23:06;100070.13;;;16.74;52.46
52719;BME280;38616;42.140;24.760;2023-05-03T12:25:33;100058.44;;;16.91;52.23
52719;BME280;38616;42.140;24.760;2023-05-03T12:28:01;100066.59;;;16.59;52.73
52719;BME280;38616;42.140;24.760;2023-05-03T12:30:27;100065.41;;;16.74;52.54
52719;BME280;38616;42.140;24.760;2023-05-03T12:32:53;100052.25;;;16.85;52.15
52719;BME280;38616;42.140;24.760;2023-05-03T12:35:20;100052.63;;;16.92;51.89
52719;BME280;38616;42.140;24.760;2023-05-03T12:37:47;100050.50;;;16.89;51.95
52719;BME280;38616;42.140;24.760;2023-05-03T12:40:13;100040.94;;;17.01;51.80
52719;BME280;38616;42.140;24.760;2023-05-03T12:42:39;100039.06;;;17.10;51.72
52719;BME280;38616;42.140;24.760;2023-05-03T12:45:05;100039.44;;;17.17;51.00
52719;BME280;38616;42.140;24.760;2023-05-03T12:47:32;100023.81;;;17.26;50.80
52719;BME280;38616;42.140;24.760;2023-05-03T12:49:57;100028.94;;;17.19;50.26
52719;BME280;38616;42.140;24.760;2023-05-03T12:52:23;100011.75;;;17.36;50.15
52719;BME280;38616;42.140;24.760;2023-05-03T12:54:48;100009.91;;;17.54;49.52
52719;BME280;38616;42.140;24.760;2023-05-03T12:57:14;99999.16;;;17.35;49.97
52719;BME280;38616;42.140;24.760;2023-05-03T12:59:40;100000.50;;;17.47;49.99
52719;BME280;38616;42.140;24.760;2023-05-03T13:02:09;100002.13;;;17.16;49.94